createdAt,value
2019-03-10T00:02:03.080Z,33.83
2019-03-10T00:04:30.512Z,31.47
2019-03-10T00:06:57.941Z,38.70
2019-03-10T00:09:25.349Z,38.33
2019-03-10T00:11:52.770Z,39.03
2019-03-10T00:14:20.209Z,37.97
2019-03-10T00:16:47.631Z,37.53
2019-03-10T00:19:16.071Z,35.17
2019-03-10T00:21:43.471Z,41.00
2019-03-10T00:24:10.907Z,35.20
2019-03-10T00:26:38.342Z,26.13
2019-03-10T00:29:05.762Z,50.73
2019-03-10T00:31:33.199Z,35.67
2019-03-10T00:34:00.596Z,41.57
2019-03-10T00:36:28.011Z,38.87
2019-03-10T00:39:04.044Z,40.73
2019-03-10T00:41:43.071Z,40.00
2019-03-10T00:44:47.756Z,37.37
2019-03-10T00:47:29.804Z,40.80
2019-03-10T00:49:57.223Z,42.70
2019-03-10T00:52:33.694Z,41.60
2019-03-10T00:55:01.060Z,35.10
2019-03-10T00:57:28.499Z,32.67
2019-03-10T00:59:55.906Z,39.53
2019-03-10T01:02:23.304Z,37.73
2019-03-10T01:04:50.822Z,34.10
2019-03-10T01:07:18.216Z,39.00
2019-03-10T01:09:45.638Z,41.20
2019-03-10T01:12:13.044Z,40.50
2019-03-10T01:14:40.478Z,46.20
2019-03-10T01:17:08.003Z,36.07
2019-03-10T01:19:35.424Z,36.97
2019-03-10T01:22:02.818Z,36.80
2019-03-10T01:24:30.260Z,38.47
2019-03-10T01:26:57.689Z,35.10
2019-03-10T01:29:25.096Z,33.23
2019-03-10T01:32:07.469Z,39.37
2019-03-10T01:34:34.898Z,42.37
2019-03-10T01:37:02.302Z,36.73
2019-03-10T01:39:29.727Z,35.47
2019-03-10T01:41:57.154Z,31.43
2019-03-10T01:44:24.574Z,34.90
2019-03-10T01:46:52.006Z,30.23
2019-03-10T01:49:19.438Z,29.37
2019-03-10T01:51:46.842Z,24.93
2019-03-10T01:54:14.350Z,26.77
2019-03-10T01:56:41.668Z,29.93
2019-03-10T01:59:09.118Z,30.27
2019-03-10T02:01:36.524Z,33.17
2019-03-10T02:04:03.950Z,27.97
2019-03-10T02:06:31.358Z,30.60
2019-03-10T02:08:58.780Z,31.20
2019-03-10T02:11:26.185Z,39.13
2019-03-10T02:13:53.602Z,25.20
2019-03-10T02:16:21.053Z,28.77
2019-03-10T02:18:48.461Z,25.90
2019-03-10T02:21:15.884Z,28.90
2019-03-10T02:23:43.313Z,20.63
2019-03-10T02:26:10.718Z,24.87
2019-03-10T02:28:38.125Z,29.67
2019-03-10T02:31:05.555Z,26.83
2019-03-10T02:33:32.967Z,23.20
2019-03-10T02:36:00.384Z,32.20
2019-03-10T02:38:27.786Z,23.17
2019-03-10T02:40:55.204Z,28.67
2019-03-10T02:43:22.644Z,24.23
2019-03-10T02:45:50.049Z,26.10
2019-03-10T02:48:17.486Z,26.37
2019-03-10T02:50:44.906Z,26.90
2019-03-10T02:53:12.336Z,25.33
2019-03-10T02:55:39.747Z,16.37
2019-03-10T02:58:07.184Z,26.23
2019-03-10T03:00:34.618Z,17.70
2019-03-10T03:03:02.059Z,20.83
2019-03-10T03:05:29.467Z,18.80
2019-03-10T03:07:56.894Z,17.20
2019-03-10T03:10:24.316Z,15.60
2019-03-10T03:12:51.721Z,22.60
2019-03-10T03:15:19.149Z,22.20
2019-03-10T03:17:46.585Z,18.80
2019-03-10T03:20:13.985Z,15.53
2019-03-10T03:22:41.415Z,13.60
2019-03-10T03:25:08.834Z,19.73
2019-03-10T03:27:36.275Z,25.83
2019-03-10T03:30:03.712Z,21.23
2019-03-10T03:32:31.154Z,18.57
2019-03-10T03:34:58.539Z,20.57
2019-03-10T03:37:25.946Z,18.50
2019-03-10T03:39:53.378Z,16.23
2019-03-10T03:42:20.778Z,16.13
2019-03-10T03:44:48.206Z,17.33
2019-03-10T03:47:15.610Z,19.47
2019-03-10T03:49:43.045Z,18.03
2019-03-10T03:52:10.457Z,22.13
2019-03-10T03:54:37.884Z,18.27
2019-03-10T03:57:05.279Z,20.97
2019-03-10T03:59:32.724Z,18.60
2019-03-10T04:02:00.160Z,18.70
2019-03-10T04:04:27.581Z,18.10
2019-03-10T04:06:55.021Z,20.93
2019-03-10T04:09:22.413Z,18.17
2019-03-10T04:11:49.849Z,19.67
2019-03-10T04:14:17.254Z,21.90
2019-03-10T04:16:44.672Z,20.90
2019-03-10T04:19:12.073Z,15.40
2019-03-10T04:21:39.494Z,15.60
2019-03-10T04:24:06.907Z,15.63
2019-03-10T04:26:34.329Z,17.93
2019-03-10T04:29:01.753Z,14.60
2019-03-10T04:31:29.149Z,14.23
2019-03-10T04:33:56.587Z,13.50
2019-03-10T04:36:23.989Z,13.60
2019-03-10T04:38:51.388Z,16.17
2019-03-10T04:41:18.826Z,13.57
2019-03-10T04:43:46.231Z,14.17
2019-03-10T04:46:13.695Z,12.60
2019-03-10T04:48:41.088Z,12.43
2019-03-10T04:51:08.500Z,16.80
2019-03-10T04:53:35.946Z,12.40
2019-03-10T04:56:03.356Z,13.53
2019-03-10T04:58:30.772Z,16.33
2019-03-10T05:00:58.177Z,12.93
2019-03-10T05:03:25.577Z,12.37
2019-03-10T05:05:53.003Z,10.17
2019-03-10T05:08:20.411Z,15.30
2019-03-10T05:10:47.849Z,18.43
2019-03-10T05:13:15.267Z,16.93
2019-03-10T05:15:42.696Z,15.93
2019-03-10T05:18:10.130Z,20.20
2019-03-10T05:20:37.501Z,17.67
2019-03-10T05:23:29.096Z,15.73
2019-03-10T05:25:56.527Z,17.37
2019-03-10T05:28:23.926Z,19.83
2019-03-10T05:30:51.335Z,15.93
2019-03-10T05:33:18.772Z,18.87
2019-03-10T05:35:46.191Z,19.93
2019-03-10T05:38:13.593Z,24.73
2019-03-10T05:40:41.030Z,19.67
2019-03-10T05:43:08.434Z,26.90
2019-03-10T05:45:35.836Z,22.50
2019-03-10T05:48:03.253Z,19.20
2019-03-10T05:50:30.682Z,13.87
2019-03-10T05:52:58.130Z,17.50
2019-03-10T05:55:25.534Z,15.53
2019-03-10T05:57:52.972Z,14.53
2019-03-10T06:00:20.390Z,22.00
2019-03-10T06:02:47.800Z,17.87
2019-03-10T06:05:15.278Z,22.23
2019-03-10T06:07:42.640Z,21.63
2019-03-10T06:10:10.077Z,22.80
2019-03-10T06:12:37.475Z,16.03
2019-03-10T06:15:04.902Z,12.87
2019-03-10T06:17:32.299Z,15.57
2019-03-10T06:19:59.727Z,12.00
2019-03-10T06:22:27.154Z,11.17
2019-03-10T06:24:54.562Z,11.10
2019-03-10T06:27:21.992Z,7.23
2019-03-10T06:29:49.396Z,9.80
2019-03-10T06:32:16.852Z,9.13
2019-03-10T06:34:44.251Z,4.53
2019-03-10T06:37:11.668Z,4.83
2019-03-10T06:39:39.088Z,3.57
2019-03-10T06:42:06.521Z,3.90
2019-03-10T06:44:33.909Z,2.40
2019-03-10T06:47:01.309Z,3.30
2019-03-10T06:49:28.741Z,2.00
2019-03-10T06:51:56.145Z,1.10
2019-03-10T06:54:23.533Z,1.83
2019-03-10T06:56:50.959Z,2.40
2019-03-10T06:59:18.370Z,1.57
2019-03-10T07:01:45.797Z,1.47
2019-03-10T07:04:13.196Z,2.33
2019-03-10T07:06:40.618Z,1.57
2019-03-10T07:09:08.013Z,3.40
2019-03-10T07:11:35.439Z,1.20
2019-03-10T07:14:02.828Z,1.37
2019-03-10T07:16:30.247Z,1.50
2019-03-10T07:18:57.647Z,1.73
2019-03-10T07:21:25.058Z,2.70
2019-03-10T07:23:52.471Z,2.23
2019-03-10T07:26:19.927Z,3.97
2019-03-10T07:28:50.213Z,7.60
2019-03-10T07:31:23.355Z,2.50
2019-03-10T07:33:59.691Z,3.47
2019-03-10T07:36:27.618Z,3.57
2019-03-10T07:38:58.078Z,6.80
2019-03-10T07:41:25.510Z,3.30
2019-03-10T07:43:52.915Z,6.30
2019-03-10T07:46:26.046Z,6.80
2019-03-10T07:49:05.660Z,4.63
2019-03-10T07:51:42.171Z,5.93
2019-03-10T07:54:12.565Z,5.90
2019-03-10T07:56:46.080Z,7.67
2019-03-10T07:59:13.445Z,6.97
2019-03-10T08:01:59.487Z,6.43
2019-03-10T08:04:45.147Z,14.10
2019-03-10T08:07:21.407Z,8.60
2019-03-10T08:09:48.818Z,6.60
2019-03-10T08:12:16.245Z,7.93
2019-03-10T08:14:43.709Z,7.17
2019-03-10T08:17:13.806Z,9.50
2019-03-10T08:19:59.577Z,6.27
2019-03-10T08:22:45.105Z,9.27
2019-03-10T08:25:24.776Z,12.97
2019-03-10T08:28:01.658Z,11.53
2019-03-10T08:30:37.490Z,7.00
2019-03-10T08:33:13.948Z,7.60
2019-03-10T08:35:57.644Z,8.50
2019-03-10T08:38:38.638Z,7.87
2019-03-10T08:41:06.038Z,7.07
2019-03-10T08:43:36.264Z,8.27
2019-03-10T08:46:03.686Z,11.33
2019-03-10T08:48:46.105Z,10.33
2019-03-10T08:51:16.450Z,12.60
2019-03-10T08:53:58.787Z,7.47
2019-03-10T08:56:31.944Z,14.63
2019-03-10T08:58:59.401Z,11.67
2019-03-10T09:01:38.691Z,17.73
2019-03-10T09:04:08.829Z,14.20
2019-03-10T09:06:45.008Z,12.80
2019-03-10T09:09:21.306Z,13.13
2019-03-10T09:11:51.469Z,13.93
2019-03-10T09:14:28.117Z,15.40
2019-03-10T09:16:58.329Z,18.87
2019-03-10T09:19:37.836Z,17.67
2019-03-10T09:22:11.212Z,17.00
2019-03-10T09:24:38.622Z,19.93
2019-03-10T09:27:08.919Z,18.67
2019-03-10T09:29:45.422Z,16.87
2019-03-10T09:32:18.667Z,12.13
2019-03-10T09:34:58.125Z,16.83
2019-03-10T09:37:25.528Z,18.87
2019-03-10T09:39:52.963Z,17.30
2019-03-10T09:42:38.393Z,19.37
2019-03-10T09:45:10.834Z,16.70
2019-03-10T09:47:41.043Z,20.93
2019-03-10T09:50:14.437Z,14.30
2019-03-10T09:52:59.982Z,17.83
2019-03-10T09:55:30.403Z,10.43
2019-03-10T09:58:03.552Z,15.13
2019-03-10T10:00:36.730Z,17.70
2019-03-10T10:03:22.482Z,18.97
2019-03-10T10:06:08.019Z,25.13
2019-03-10T10:08:41.156Z,17.13
2019-03-10T10:11:11.498Z,19.00
2019-03-10T10:13:41.981Z,16.93
2019-03-10T10:16:12.099Z,19.83
2019-03-10T10:18:58.088Z,18.63
2019-03-10T10:21:25.496Z,25.67
2019-03-10T10:23:58.877Z,19.00
2019-03-10T10:26:35.427Z,22.00
2019-03-10T10:29:17.934Z,21.73
2019-03-10T10:32:03.225Z,13.27
2019-03-10T10:34:36.786Z,15.23
2019-03-10T10:37:22.083Z,19.10
2019-03-10T10:39:52.155Z,19.37
2019-03-10T10:42:25.562Z,23.47
2019-03-10T10:45:10.905Z,24.80
2019-03-10T10:47:47.266Z,19.60
2019-03-10T10:50:23.260Z,18.03
2019-03-10T10:52:53.325Z,20.73
2019-03-10T10:55:32.765Z,14.93
2019-03-10T10:58:05.812Z,16.57
2019-03-10T11:00:33.293Z,21.73
2019-03-10T11:03:03.586Z,18.63
2019-03-10T11:05:46.129Z,25.37
2019-03-10T11:08:16.440Z,19.63
2019-03-10T11:10:59.080Z,24.27
2019-03-10T11:13:35.143Z,21.80
2019-03-10T11:16:14.627Z,25.10
2019-03-10T11:18:54.146Z,21.97
2019-03-10T11:21:39.786Z,25.80
2019-03-10T11:24:16.251Z,26.53
2019-03-10T11:26:55.876Z,21.67
2019-03-10T11:29:41.620Z,18.97
2019-03-10T11:32:27.104Z,22.57
2019-03-10T11:35:00.634Z,30.93
2019-03-10T11:37:28.063Z,27.87
2019-03-10T11:40:13.843Z,19.80
2019-03-10T11:42:44.046Z,32.00
2019-03-10T11:45:17.424Z,22.87
2019-03-10T11:47:50.643Z,30.47
2019-03-10T11:50:20.979Z,25.07
2019-03-10T11:53:03.691Z,25.13
2019-03-10T11:55:31.095Z,19.77
2019-03-10T11:58:16.668Z,18.43
2019-03-10T12:00:46.651Z,15.40
2019-03-10T12:03:19.924Z,12.97
2019-03-10T12:05:53.074Z,15.83
2019-03-10T12:08:23.038Z,20.03
2019-03-10T12:10:50.488Z,20.07
2019-03-10T12:13:17.878Z,10.43
2019-03-10T12:15:45.296Z,12.77
2019-03-10T12:18:12.704Z,12.60
2019-03-10T12:20:40.113Z,17.20
2019-03-10T12:23:07.522Z,15.17
2019-03-10T12:25:34.945Z,14.23
2019-03-10T12:28:02.345Z,10.10
2019-03-10T12:30:29.773Z,12.53
2019-03-10T12:32:57.216Z,4.97
2019-03-10T12:35:34.031Z,3.63
2019-03-10T12:37:52.075Z,4.97
2019-03-10T12:40:19.531Z,7.83
2019-03-10T12:42:46.960Z,1.30
2019-03-10T12:45:14.345Z,3.93
2019-03-10T12:47:41.768Z,2.73
2019-03-10T12:50:11.926Z,3.20
2019-03-10T12:52:39.329Z,1.60
2019-03-10T12:55:06.735Z,6.67
2019-03-10T12:57:34.146Z,1.60
2019-03-10T13:00:01.565Z,3.63
2019-03-10T13:02:28.969Z,2.00
2019-03-10T13:04:56.382Z,2.00
2019-03-10T13:07:23.790Z,3.90
2019-03-10T13:09:51.211Z,2.50
2019-03-10T13:12:18.695Z,11.33
2019-03-10T13:14:46.045Z,3.53
2019-03-10T13:17:13.438Z,4.50
2019-03-10T13:19:40.867Z,2.43
2019-03-10T13:22:08.283Z,2.47
2019-03-10T13:24:35.715Z,1.47
2019-03-10T13:27:03.102Z,3.23
2019-03-10T13:29:30.529Z,2.13
2019-03-10T13:31:57.931Z,1.70
2019-03-10T13:34:25.341Z,3.37
2019-03-10T13:36:52.775Z,3.20
2019-03-10T13:39:20.184Z,1.60
2019-03-10T13:41:47.609Z,3.77
2019-03-10T13:44:15.066Z,4.37
2019-03-10T13:46:43.893Z,2.57
2019-03-10T13:49:09.940Z,2.63
2019-03-10T13:51:37.369Z,2.93
2019-03-10T13:54:04.776Z,3.73
2019-03-10T13:56:32.200Z,2.13
2019-03-10T13:58:59.605Z,3.97
2019-03-10T14:01:27.023Z,1.23
2019-03-10T14:03:54.432Z,5.63
2019-03-10T14:06:21.822Z,9.13
2019-03-10T14:08:49.273Z,2.30
2019-03-10T14:11:16.665Z,7.07
2019-03-10T14:13:44.071Z,1.50
2019-03-10T14:16:11.503Z,3.87
2019-03-10T14:18:38.899Z,5.67
2019-03-10T14:21:06.308Z,3.67
2019-03-10T14:23:33.722Z,4.00
2019-03-10T14:26:01.148Z,2.60
2019-03-10T14:28:28.550Z,6.33
2019-03-10T14:30:55.969Z,4.57
2019-03-10T14:33:23.418Z,3.73
2019-03-10T14:35:50.840Z,5.20
2019-03-10T14:38:18.238Z,5.80
2019-03-10T14:40:45.669Z,4.47
2019-03-10T14:43:13.089Z,3.90
2019-03-10T14:45:40.516Z,2.03
2019-03-10T14:48:07.932Z,5.23
2019-03-10T14:50:35.356Z,3.43
2019-03-10T14:53:04.583Z,2.27
2019-03-10T14:55:30.190Z,2.93
2019-03-10T14:57:57.600Z,3.83
2019-03-10T15:00:30.918Z,3.00
2019-03-10T15:02:58.357Z,2.73
2019-03-10T15:05:25.773Z,4.27
2019-03-10T15:07:53.196Z,4.27
2019-03-10T15:10:20.643Z,1.30
2019-03-10T15:12:48.114Z,2.93
2019-03-10T15:15:22.454Z,2.80
2019-03-10T15:17:42.951Z,1.90
2019-03-10T15:20:10.370Z,1.60
2019-03-10T15:22:37.793Z,2.67
2019-03-10T15:25:07.618Z,2.70
2019-03-10T15:27:35.018Z,2.90
2019-03-10T15:30:02.496Z,3.37
2019-03-10T15:32:29.908Z,1.67
2019-03-10T15:34:57.348Z,3.57
2019-03-10T15:37:24.765Z,3.37
2019-03-10T15:39:52.187Z,1.43
2019-03-10T15:42:19.599Z,2.27
2019-03-10T15:44:47.022Z,2.13
2019-03-10T15:47:14.433Z,4.93
2019-03-10T15:49:41.851Z,3.50
2019-03-10T15:52:09.270Z,3.73
2019-03-10T15:54:36.671Z,2.60
2019-03-10T15:57:04.100Z,2.30
2019-03-10T15:59:31.535Z,4.10
2019-03-10T16:01:58.949Z,5.67
2019-03-10T16:04:26.350Z,3.43
2019-03-10T16:06:53.799Z,5.80
2019-03-10T16:09:21.204Z,2.70
2019-03-10T16:11:48.658Z,6.20
2019-03-10T16:14:16.067Z,7.67
2019-03-10T16:16:43.470Z,3.97
2019-03-10T16:19:10.903Z,6.20
2019-03-10T16:21:38.331Z,3.13
2019-03-10T16:24:05.753Z,6.73
2019-03-10T16:26:33.191Z,3.97
2019-03-10T16:29:00.611Z,5.83
2019-03-10T16:31:28.016Z,6.00
2019-03-10T16:33:55.451Z,6.30
2019-03-10T16:36:22.857Z,7.20
2019-03-10T16:38:50.317Z,3.50
2019-03-10T16:41:19.686Z,4.00
2019-03-10T16:43:45.160Z,3.57
2019-03-10T16:46:12.602Z,3.23
2019-03-10T16:48:39.985Z,3.43
2019-03-10T16:51:07.426Z,4.07
2019-03-10T16:53:34.828Z,4.40
2019-03-10T16:56:03.115Z,3.90
2019-03-10T16:58:29.656Z,5.20
2019-03-10T17:00:57.083Z,7.67
2019-03-10T17:03:24.496Z,3.23
2019-03-10T17:05:51.933Z,9.80
2019-03-10T17:08:19.356Z,5.07
2019-03-10T17:10:46.771Z,4.90
2019-03-10T17:13:14.194Z,5.53
2019-03-10T17:15:41.598Z,4.13
2019-03-10T17:18:09.028Z,4.83
2019-03-10T17:20:36.463Z,4.27
2019-03-10T17:23:03.876Z,3.80
2019-03-10T17:25:31.281Z,2.40
2019-03-10T17:27:58.705Z,3.67
2019-03-10T17:30:26.149Z,4.00
2019-03-10T17:32:53.554Z,2.60
2019-03-10T17:35:20.978Z,3.73
2019-03-10T17:37:48.986Z,1.73
2019-03-10T17:40:18.732Z,2.23
2019-03-10T17:42:46.133Z,2.50
2019-03-10T17:45:19.826Z,3.10
2019-03-10T17:47:47.239Z,2.33
2019-03-10T17:50:14.680Z,3.27
2019-03-10T17:52:42.078Z,3.27
2019-03-10T17:55:09.506Z,1.10
2019-03-10T17:57:36.919Z,1.93
2019-03-10T18:00:04.351Z,2.97
2019-03-10T18:02:31.744Z,3.10
2019-03-10T18:04:59.158Z,1.07
2019-03-10T18:07:26.657Z,4.97
2019-03-10T18:09:53.993Z,1.93
2019-03-10T18:12:21.445Z,1.70
2019-03-10T18:14:48.850Z,2.80
2019-03-10T18:17:16.429Z,3.17
2019-03-10T18:19:44.036Z,2.50
2019-03-10T18:22:11.498Z,1.57
2019-03-10T18:24:39.010Z,2.53
2019-03-10T18:27:06.476Z,2.23
2019-03-10T18:29:33.903Z,13.47
2019-03-10T18:32:02.187Z,2.90
2019-03-10T18:34:28.858Z,3.30
2019-03-10T18:36:59.209Z,2.33
2019-03-10T18:39:26.576Z,3.30
2019-03-10T18:41:54.092Z,4.23
2019-03-10T18:44:23.457Z,2.67
2019-03-10T18:46:48.910Z,1.90
2019-03-10T18:49:16.517Z,2.23
2019-03-10T18:51:44.040Z,3.97
2019-03-10T18:54:11.455Z,3.93
2019-03-10T18:56:38.940Z,3.27
2019-03-10T18:59:06.315Z,5.67
2019-03-10T19:01:33.715Z,5.17
2019-03-10T19:04:01.159Z,4.73
2019-03-10T19:06:28.597Z,9.63
2019-03-10T19:08:56.060Z,5.47
2019-03-10T19:11:23.506Z,8.60
2019-03-10T19:13:51.128Z,6.00
2019-03-10T19:16:18.489Z,6.63
2019-03-10T19:18:45.934Z,7.83
2019-03-10T19:21:13.349Z,8.60
2019-03-10T19:23:40.851Z,10.37
2019-03-10T19:26:08.331Z,10.40
2019-03-10T19:28:35.841Z,7.40
2019-03-10T19:31:03.341Z,9.73
2019-03-10T19:33:30.791Z,7.43
2019-03-10T19:35:58.227Z,6.13
2019-03-10T19:38:25.682Z,17.00
2019-03-10T19:40:53.132Z,10.27
2019-03-10T19:43:20.609Z,13.03
2019-03-10T19:45:48.106Z,12.90
2019-03-10T19:48:15.468Z,12.63
2019-03-10T19:50:42.879Z,8.87
2019-03-10T19:53:12.768Z,9.73
2019-03-10T19:55:40.234Z,8.80
2019-03-10T19:58:07.731Z,12.05
2019-03-10T20:00:36.765Z,9.57
2019-03-10T20:03:04.280Z,10.00
2019-03-10T20:05:31.770Z,9.30
2019-03-10T20:07:59.186Z,6.30
2019-03-10T20:10:27.871Z,9.87
2019-03-10T20:12:54.228Z,7.90
2019-03-10T20:15:21.653Z,13.27
2019-03-10T20:17:49.114Z,12.07
2019-03-10T20:20:19.889Z,9.47
2019-03-10T20:22:47.337Z,10.20
2019-03-10T20:25:14.789Z,8.53
2019-03-10T20:27:42.267Z,7.57
2019-03-10T20:30:09.718Z,9.57
2019-03-10T20:32:39.821Z,6.13
2019-03-10T20:35:07.374Z,6.33
2019-03-10T20:37:34.852Z,12.97
2019-03-10T20:40:02.305Z,10.93
2019-03-10T20:42:29.836Z,21.67
2019-03-10T20:44:57.304Z,7.73
2019-03-10T20:47:24.773Z,7.43
2019-03-10T20:49:52.197Z,8.47
2019-03-10T20:52:19.696Z,13.23
2019-03-10T20:54:47.147Z,11.30
2019-03-10T20:57:14.599Z,9.77
2019-03-10T20:59:45.025Z,7.53
2019-03-10T21:02:12.465Z,8.93
2019-03-10T21:04:41.386Z,13.93
2019-03-10T21:07:10.191Z,10.00
2019-03-10T21:09:37.457Z,12.43
2019-03-10T21:12:05.479Z,10.57
2019-03-10T21:14:33.105Z,15.27
2019-03-10T21:17:00.556Z,7.33
2019-03-10T21:19:28.049Z,10.43
2019-03-10T21:21:56.635Z,8.63
2019-03-10T21:24:24.134Z,11.87
2019-03-10T21:26:51.677Z,10.70
2019-03-10T21:29:19.270Z,9.00
2019-03-10T21:31:46.697Z,9.87
2019-03-10T21:34:14.273Z,9.33
2019-03-10T21:36:41.816Z,12.50
2019-03-10T21:39:09.315Z,12.60
2019-03-10T21:41:39.097Z,10.90
2019-03-10T21:44:06.566Z,13.50
2019-03-10T21:46:34.182Z,16.20
2019-03-10T21:49:04.473Z,17.53
2019-03-10T21:51:31.886Z,15.23
2019-03-10T21:53:59.437Z,12.53
2019-03-10T21:56:28.294Z,14.17
2019-03-10T21:58:55.759Z,12.00
2019-03-10T22:01:25.320Z,11.13
2019-03-10T22:03:52.824Z,10.37
2019-03-10T22:06:20.288Z,8.70
2019-03-10T22:08:47.771Z,14.67
2019-03-10T22:11:16.307Z,7.70
2019-03-10T22:13:46.881Z,11.67
2019-03-10T22:16:11.261Z,12.53
2019-03-10T22:18:38.850Z,11.13
2019-03-10T22:21:06.300Z,8.17
2019-03-10T22:23:36.201Z,17.87
2019-03-10T22:26:03.686Z,12.07
2019-03-10T22:28:32.368Z,15.17
2019-03-10T22:31:01.031Z,10.00
2019-03-10T22:33:28.392Z,14.53
2019-03-10T22:35:55.966Z,15.70
2019-03-10T22:38:23.374Z,10.90
2019-03-10T22:40:52.053Z,24.13
2019-03-10T22:43:19.801Z,15.53
2019-03-10T22:45:48.336Z,10.60
2019-03-10T22:48:18.148Z,17.83
2019-03-10T22:50:45.594Z,13.73
2019-03-10T22:53:13.056Z,16.43
2019-03-10T22:55:40.528Z,14.83
2019-03-10T22:58:08.319Z,15.50
2019-03-10T23:00:45.564Z,16.10
2019-03-10T23:03:14.742Z,21.97
2019-03-10T23:05:42.179Z,10.50
2019-03-10T23:08:09.646Z,17.27
2019-03-10T23:10:37.076Z,12.23
2019-03-10T23:13:05.390Z,9.93
2019-03-10T23:15:34.329Z,12.83
2019-03-10T23:18:01.826Z,12.73
2019-03-10T23:20:29.294Z,16.03
2019-03-10T23:22:56.738Z,17.27
2019-03-10T23:25:24.216Z,12.33
2019-03-10T23:27:51.695Z,17.77
2019-03-10T23:30:19.168Z,7.97
2019-03-10T23:32:46.562Z,10.97
2019-03-10T23:35:14.028Z,13.57
2019-03-10T23:37:41.468Z,13.30
2019-03-10T23:40:09.052Z,10.07
2019-03-10T23:42:36.469Z,9.60
2019-03-10T23:45:03.940Z,11.10
2019-03-10T23:47:31.463Z,9.77
2019-03-10T23:49:58.899Z,15.90
2019-03-10T23:52:26.380Z,7.50
2019-03-10T23:54:53.814Z,9.40
2019-03-10T23:57:21.279Z,11.67
2019-03-10T23:59:50.970Z,12.87
